Time;durP1;ratioP1;P1;durP2;ratioP2;P2;SDS_P1;SDS_P2;PMS_P1;PMS_P2;Temp;Humidity;BMP_temperature;BMP_pressure;BME280_temperature;BME280_humidity;BME280_pressure;Samples;Min_cycle;Max_cycle;Signal;HPM_P1;HPM_P2
2022/11/24 00:01:15;;;;;;;14.80;3.80;;;9.10;81.80;;;;;;5121283;27;20517;-75
2022/11/24 00:03:46;;;;;;;7.73;2.60;;;9.10;81.80;;;;;;5117277;27;20464;-75
2022/11/24 00:06:15;;;;;;;11.90;3.30;;;9.10;81.80;;;;;;5115398;27;21237;-76
2022/11/24 00:08:45;;;;;;;12.90;3.53;;;9.10;82.00;;;;;;5116256;27;20812;-76
2022/11/24 00:11:15;;;;;;;12.57;3.20;;;9.10;82.00;;;;;;5124740;27;20540;-76
2022/11/24 00:13:43;;;;;;;9.93;3.10;;;9.10;82.10;;;;;;5120954;27;20455;-75
2022/11/24 00:16:16;;;;;;;12.33;3.73;;;9.10;82.20;;;;;;5120291;27;20459;-72
2022/11/24 00:18:47;;;;;;;13.80;3.70;;;9.10;82.20;;;;;;5121365;27;20512;-77
2022/11/24 00:21:16;;;;;;;13.60;3.00;;;9.20;82.20;;;;;;5123249;27;20479;-72
2022/11/24 00:23:45;;;;;;;17.97;3.77;;;9.20;82.20;;;;;;5116302;27;21222;-76
2022/11/24 00:26:15;;;;;;;14.07;4.53;;;9.10;82.20;;;;;;5123911;27;20984;-73
2022/11/24 00:28:46;;;;;;;13.60;3.33;;;9.20;82.30;;;;;;5123497;27;20990;-76
2022/11/24 00:31:16;;;;;;;11.47;3.00;;;9.10;82.30;;;;;;5122861;27;20484;-74
2022/11/24 00:33:48;;;;;;;10.43;3.20;;;9.10;82.40;;;;;;5114662;27;20464;-77
2022/11/24 00:36:17;;;;;;;13.30;3.17;;;9.20;82.40;;;;;;5124899;27;20447;-74
2022/11/24 00:38:45;;;;;;;15.33;3.70;;;9.20;82.40;;;;;;5126403;27;20451;-76
2022/11/24 00:41:14;;;;;;;8.50;3.70;;;9.20;82.20;;;;;;5120572;27;20501;-74
2022/11/24 00:43:42;;;;;;;12.40;3.53;;;9.20;82.20;;;;;;5117564;28;20463;-75
2022/11/24 00:46:11;;;;;;;18.10;3.60;;;9.10;82.20;;;;;;5122074;28;20456;-76
2022/11/24 00:48:39;;;;;;;11.07;3.67;;;9.10;82.30;;;;;;5122148;28;20912;-74
2022/11/24 00:51:12;;;;;;;19.07;3.57;;;9.10;82.30;;;;;;5121023;27;21027;-75
2022/11/24 00:53:40;;;;;;;19.20;3.63;;;9.10;82.20;;;;;;5123030;27;21026;-75
2022/11/24 00:56:09;;;;;;;16.58;4.10;;;9.10;82.30;;;;;;5125595;27;21014;-74
2022/11/24 00:58:38;;;;;;;16.93;3.63;;;9.00;82.40;;;;;;5127863;27;20213;-74
2022/11/24 01:01:08;;;;;;;12.43;3.33;;;9.00;82.50;;;;;;5133064;27;20493;-75
2022/11/24 01:03:37;;;;;;;11.77;3.25;;;9.00;82.60;;;;;;5132543;27;20498;-73
2022/11/24 01:06:08;;;;;;;10.00;3.03;;;9.00;82.70;;;;;;5131849;27;20263;-73
2022/11/24 01:08:39;;;;;;;12.37;3.50;;;9.10;82.80;;;;;;5134341;27;20490;-73
2022/11/24 01:11:09;;;;;;;14.63;3.10;;;9.10;82.80;;;;;;5129779;27;20688;-73
2022/11/24 01:13:38;;;;;;;16.17;3.93;;;9.20;82.80;;;;;;5131492;27;20455;-76
2022/11/24 01:16:12;;;;;;;11.57;2.90;;;9.20;82.90;;;;;;5132544;27;20452;-76
2022/11/24 01:18:41;;;;;;;20.00;4.10;;;9.20;82.80;;;;;;5132062;27;20510;-76
2022/11/24 01:21:09;;;;;;;17.77;3.50;;;9.20;82.90;;;;;;5129502;27;20686;-75
2022/11/24 01:23:39;;;;;;;13.13;3.20;;;9.30;82.80;;;;;;5131123;27;20451;-75
2022/11/24 01:26:08;;;;;;;11.70;3.97;;;9.30;82.90;;;;;;5131813;27;20459;-73
2022/11/24 01:28:36;;;;;;;16.13;3.33;;;9.30;82.90;;;;;;5131583;27;21193;-74
2022/11/24 01:31:12;;;;;;;15.13;4.53;;;9.30;82.90;;;;;;5128120;27;20472;-75
2022/11/24 01:33:41;;;;;;;7.93;2.90;;;9.30;82.80;;;;;;5129533;27;20443;-75
2022/11/24 01:36:09;;;;;;;12.30;3.10;;;9.30;82.80;;;;;;5125819;27;20468;-76
2022/11/24 01:38:38;;;;;;;12.27;3.20;;;9.30;82.80;;;;;;5124504;27;20443;-76
2022/11/24 01:41:09;;;;;;;16.93;4.17;;;9.30;82.80;;;;;;5124072;27;20480;-74
2022/11/24 01:43:38;;;;;;;8.20;2.90;;;9.30;82.90;;;;;;5125921;27;20463;-74
2022/11/24 01:46:15;;;;;;;14.30;3.80;;;9.30;83.10;;;;;;5127477;27;20467;-76
2022/11/24 01:48:47;;;;;;;14.13;3.57;;;9.30;83.10;;;;;;5128322;27;21323;-75
2022/11/24 01:51:19;;;;;;;14.23;4.00;;;9.30;83.10;;;;;;5124162;27;20504;-74
2022/11/24 01:53:53;;;;;;;14.80;3.00;;;9.40;83.10;;;;;;5126713;27;20470;-75
2022/11/24 01:56:22;;;;;;;12.10;3.80;;;9.40;83.20;;;;;;5128007;27;20473;-75
2022/11/24 01:58:53;;;;;;;13.77;4.23;;;9.40;83.20;;;;;;5126315;27;20459;-74
2022/11/24 02:01:21;;;;;;;12.10;3.23;;;9.40;83.20;;;;;;5125515;27;20532;-73
2022/11/24 02:03:49;;;;;;;17.50;4.10;;;9.40;83.20;;;;;;5128120;27;20451;-73
2022/11/24 02:06:21;;;;;;;11.50;3.20;;;9.40;83.20;;;;;;5125979;27;20454;-74
2022/11/24 02:08:55;;;;;;;12.47;2.97;;;9.40;83.30;;;;;;5129248;27;20467;-71
2022/11/24 02:11:25;;;;;;;15.63;3.40;;;9.40;83.20;;;;;;5125571;27;20467;-75
2022/11/24 02:13:54;;;;;;;13.43;2.93;;;9.40;83.20;;;;;;5123902;27;20451;-76
2022/11/24 02:16:23;;;;;;;15.83;3.87;;;9.40;83.20;;;;;;5124232;27;20527;-76
2022/11/24 02:18:51;;;;;;;19.57;5.83;;;9.40;83.30;;;;;;5123748;27;21134;-76
2022/11/24 02:21:19;;;;;;;18.10;3.60;;;9.40;83.30;;;;;;5122987;27;20484;-74
2022/11/24 02:23:57;;;;;;;21.30;3.70;;;9.40;83.20;;;;;;5115652;27;20468;-74
2022/11/24 02:26:38;;;;;;;18.87;4.23;;;9.40;83.40;;;;;;5123538;27;20984;-76
2022/11/24 02:29:07;;;;;;;14.67;3.33;;;9.40;83.30;;;;;;5121968;27;20472;-74
2022/11/24 02:31:35;;;;;;;17.23;3.67;;;9.40;83.30;;;;;;5125944;27;20463;-76
2022/11/24 02:34:03;;;;;;;12.97;3.27;;;9.40;83.30;;;;;;5125627;27;20847;-76
2022/11/24 02:36:31;;;;;;;14.40;4.83;;;9.40;83.40;;;;;;5127924;27;20450;-75
2022/11/24 02:38:59;;;;;;;17.53;3.87;;;9.40;83.40;;;;;;5122420;27;20452;-76
2022/11/24 02:41:28;;;;;;;11.87;3.87;;;9.40;83.40;;;;;;5126079;27;20505;-74
2022/11/24 02:44:01;;;;;;;15.10;3.53;;;9.40;83.40;;;;;;5123295;27;20452;-73
2022/11/24 02:46:29;;;;;;;12.50;4.00;;;9.40;83.50;;;;;;5125964;27;20443;-76
2022/11/24 02:48:57;;;;;;;13.70;4.27;;;9.40;83.50;;;;;;5127346;27;20490;-75
2022/11/24 02:51:25;;;;;;;20.20;4.27;;;9.40;83.60;;;;;;5127466;27;20475;-76
2022/11/24 02:53:53;;;;;;;14.47;3.30;;;9.40;83.60;;;;;;5126821;27;20451;-74
2022/11/24 02:56:21;;;;;;;19.30;3.90;;;9.50;83.60;;;;;;5123496;27;20531;-75
2022/11/24 02:58:49;;;;;;;16.37;3.80;;;9.50;83.50;;;;;;5123992;27;21001;-73
2022/11/24 03:01:19;;;;;;;11.90;3.33;;;9.50;83.50;;;;;;5127067;27;20524;-73
2022/11/24 03:03:47;;;;;;;13.20;4.60;;;9.50;83.60;;;;;;5121907;27;20468;-73
2022/11/24 03:06:15;;;;;;;13.00;3.40;;;9.50;83.50;;;;;;5122949;27;21212;-74
2022/11/24 03:08:43;;;;;;;16.00;3.53;;;9.50;83.50;;;;;;5124334;27;20532;-74
2022/11/24 03:11:11;;;;;;;20.77;4.53;;;9.50;83.50;;;;;;5125473;27;21212;-73
2022/11/24 03:13:39;;;;;;;19.27;4.07;;;9.60;83.60;;;;;;5120918;27;20455;-75
2022/11/24 03:16:09;;;;;;;15.77;3.50;;;9.60;83.60;;;;;;5123283;27;21188;-76
2022/11/24 03:18:39;;;;;;;17.63;3.20;;;9.50;83.60;;;;;;5124490;27;20459;-76
2022/11/24 03:21:06;;;;;;;15.30;3.70;;;9.50;83.60;;;;;;5126675;27;20480;-76
2022/11/24 03:23:35;;;;;;;20.63;4.03;;;9.50;83.60;;;;;;5125864;27;20455;-74
2022/11/24 03:26:09;;;;;;;9.60;3.30;;;9.50;83.60;;;;;;5121552;27;21338;-76
2022/11/24 03:28:37;;;;;;;14.23;3.80;;;9.50;83.70;;;;;;5125256;27;20499;-77
2022/11/24 03:31:06;;;;;;;20.07;4.17;;;9.60;83.60;;;;;;5126416;27;20470;-73
2022/11/24 03:33:34;;;;;;;10.00;3.70;;;9.60;83.60;;;;;;5125857;27;20459;-76
2022/11/24 03:36:05;;;;;;;13.23;3.43;;;9.60;83.60;;;;;;5125681;27;20604;-75
2022/11/24 03:38:33;;;;;;;16.93;4.30;;;9.50;83.60;;;;;;5123499;27;20436;-75
2022/11/24 03:41:01;;;;;;;13.70;3.57;;;9.50;83.70;;;;;;5120936;27;20516;-74
2022/11/24 03:43:29;;;;;;;10.47;3.57;;;9.60;83.60;;;;;;5123145;27;20459;-74
2022/11/24 03:45:57;;;;;;;17.80;4.50;;;9.60;83.60;;;;;;5126064;27;20439;-75
2022/11/24 03:48:25;;;;;;;18.70;3.80;;;9.60;83.60;;;;;;5124407;27;20443;-74
2022/11/24 03:50:55;;;;;;;13.53;3.90;;;9.60;83.60;;;;;;5120981;27;21007;-72
2022/11/24 03:53:26;;;;;;;14.70;3.87;;;9.50;83.60;;;;;;5111078;27;22462;-74
2022/11/24 03:55:55;;;;;;;20.20;3.83;;;9.60;83.50;;;;;;5122979;27;20532;-75
2022/11/24 03:58:23;;;;;;;14.30;3.17;;;9.50;83.60;;;;;;5120734;27;21112;-74
2022/11/24 04:00:52;;;;;;;16.17;3.60;;;9.50;83.60;;;;;;5126677;27;20467;-77
2022/11/24 04:03:21;;;;;;;10.93;3.60;;;9.60;83.60;;;;;;5123792;27;20467;-76
2022/11/24 04:05:49;;;;;;;11.23;3.70;;;9.50;83.50;;;;;;5124465;27;20452;-76
2022/11/24 04:08:18;;;;;;;14.90;3.50;;;9.50;83.50;;;;;;5123273;27;20905;-75
2022/11/24 04:10:50;;;;;;;16.60;3.73;;;9.50;83.50;;;;;;5124300;27;20495;-76
2022/11/24 04:13:19;;;;;;;13.43;4.00;;;9.50;83.50;;;;;;5123766;27;20496;-74
2022/11/24 04:15:47;;;;;;;12.63;4.80;;;9.40;83.60;;;;;;5124827;27;20447;-75
2022/11/24 04:18:16;;;;;;;14.83;3.53;;;9.40;83.70;;;;;;5123625;27;20481;-73
2022/11/24 04:20:44;;;;;;;13.47;3.90;;;9.40;83.70;;;;;;5123187;27;20900;-74
2022/11/24 04:23:12;;;;;;;15.83;4.20;;;9.40;83.60;;;;;;5125490;27;20474;-72
2022/11/24 04:25:42;;;;;;;14.00;2.90;;;9.50;83.60;;;;;;5121673;27;20546;-76
2022/11/24 04:28:13;;;;;;;9.33;2.87;;;9.40;83.70;;;;;;5118660;27;20995;-76
2022/11/24 04:30:43;;;;;;;16.03;3.27;;;9.40;83.70;;;;;;5122626;27;20579;-75
2022/11/24 04:33:12;;;;;;;14.30;3.43;;;9.40;83.80;;;;;;5122808;27;20459;-74
2022/11/24 04:35:40;;;;;;;12.10;3.70;;;9.50;83.80;;;;;;5124703;27;20493;-76
2022/11/24 04:38:08;;;;;;;11.43;4.10;;;9.50;83.60;;;;;;5120012;27;20444;-75
2022/11/24 04:40:37;;;;;;;12.67;3.23;;;9.50;83.60;;;;;;5124596;27;21107;-76
2022/11/24 04:43:05;;;;;;;16.97;3.93;;;9.50;83.70;;;;;;5122487;28;20483;-74
2022/11/24 04:45:34;;;;;;;16.80;4.00;;;9.40;83.80;;;;;;5126226;28;20459;-75
2022/11/24 04:48:02;;;;;;;11.70;3.20;;;9.40;83.80;;;;;;5115163;28;20971;-74
2022/11/24 04:50:30;;;;;;;19.03;3.97;;;9.40;83.80;;;;;;5125814;27;20551;-76
2022/11/24 04:52:58;;;;;;;13.67;3.63;;;9.40;83.90;;;;;;5119576;28;20508;-75
2022/11/24 04:55:26;;;;;;;11.87;3.23;;;9.40;84.00;;;;;;5122475;28;20459;-75
2022/11/24 04:57:54;;;;;;;16.27;4.27;;;9.50;83.90;;;;;;5123079;28;20463;-76
2022/11/24 05:00:22;;;;;;;10.80;3.30;;;9.50;84.00;;;;;;5123779;27;21038;-75
2022/11/24 05:02:51;;;;;;;11.70;3.83;;;9.50;83.90;;;;;;5125592;28;20548;-74
2022/11/24 05:05:19;;;;;;;16.30;4.70;;;9.50;83.90;;;;;;5122479;28;20455;-76
2022/11/24 05:07:47;;;;;;;66.97;28.43;;;9.50;83.90;;;;;;5122726;28;20964;-76
2022/11/24 05:13:03;;;;;;;24.47;9.70;;;9.50;83.80;;;;;;5119349;28;20512;-76
2022/11/24 05:15:31;;;;;;;15.13;4.73;;;9.50;83.70;;;;;;5120389;28;20520;-75
2022/11/24 05:18:04;;;;;;;18.20;4.27;;;9.50;83.80;;;;;;5125258;28;21435;-74
2022/11/24 05:20:32;;;;;;;13.47;4.60;;;9.40;83.80;;;;;;5124862;27;20520;-74
2022/11/24 05:23:02;;;;;;;17.03;5.10;;;9.40;84.00;;;;;;5123091;28;20535;-76
2022/11/24 05:25:31;;;;;;;23.93;5.73;;;9.40;84.00;;;;;;5122043;28;20508;-75
2022/11/24 05:28:01;;;;;;;18.97;5.50;;;9.40;84.10;;;;;;5124874;28;20459;-73
2022/11/24 05:30:29;;;;;;;16.57;5.53;;;9.40;84.10;;;;;;5123914;27;20471;-76
2022/11/24 05:32:57;;;;;;;13.03;4.80;;;9.40;84.20;;;;;;5123684;28;20504;-75
2022/11/24 05:35:27;;;;;;;20.30;5.00;;;9.40;84.10;;;;;;5121879;28;20818;-76
2022/11/24 05:37:55;;;;;;;14.70;5.40;;;9.40;84.10;;;;;;5124137;27;20452;-74
2022/11/24 05:40:23;;;;;;;20.33;6.20;;;9.40;84.10;;;;;;5120537;27;20479;-76
2022/11/24 05:42:51;;;;;;;19.93;6.73;;;9.40;84.20;;;;;;5126557;27;20477;-75
2022/11/24 05:45:20;;;;;;;13.77;4.13;;;9.40;84.30;;;;;;5125525;27;20519;-76
2022/11/24 05:47:49;;;;;;;14.40;4.60;;;9.40;84.20;;;;;;5129723;27;20971;-76
2022/11/24 05:50:20;;;;;;;14.10;3.90;;;9.40;84.30;;;;;;5128711;27;20498;-75
2022/11/24 05:52:49;;;;;;;19.57;3.83;;;9.40;84.40;;;;;;5123367;27;20455;-75
2022/11/24 05:55:19;;;;;;;16.73;3.47;;;9.40;84.40;;;;;;5126956;27;20466;-75
2022/11/24 05:57:47;;;;;;;13.73;3.93;;;9.40;84.30;;;;;;5128983;27;20446;-75
2022/11/24 06:00:18;;;;;;;14.40;4.00;;;9.40;84.40;;;;;;5127995;27;20463;-75
2022/11/24 06:02:46;;;;;;;17.33;4.00;;;9.40;84.30;;;;;;5126637;27;20461;-75
2022/11/24 06:05:15;;;;;;;15.10;3.67;;;9.40;84.20;;;;;;5128218;27;20925;-75
2022/11/24 06:07:43;;;;;;;20.50;3.50;;;9.40;84.10;;;;;;5125906;27;20546;-75
2022/11/24 06:10:12;;;;;;;19.17;4.37;;;9.40;84.10;;;;;;5124578;27;20494;-75
2022/11/24 06:12:40;;;;;;;15.70;3.37;;;9.30;84.20;;;;;;5124303;27;20953;-75
2022/11/24 06:15:10;;;;;;;11.67;2.97;;;9.30;84.20;;;;;;5127758;27;20464;-76
2022/11/24 06:17:38;;;;;;;14.63;2.97;;;9.30;84.20;;;;;;5128002;27;20455;-76
2022/11/24 06:20:09;;;;;;;15.63;3.10;;;9.30;84.20;;;;;;5127392;27;20842;-75
2022/11/24 06:22:37;;;;;;;13.80;3.70;;;9.30;84.20;;;;;;5124536;27;20855;-75
2022/11/24 06:25:06;;;;;;;10.63;2.83;;;9.30;84.10;;;;;;5127806;27;20432;-75
2022/11/24 06:27:35;;;;;;;14.70;4.00;;;9.30;84.20;;;;;;5128520;27;20333;-75
2022/11/24 06:30:04;;;;;;;19.57;3.40;;;9.30;84.20;;;;;;5125885;27;20467;-75
2022/11/24 06:32:32;;;;;;;11.70;2.90;;;9.30;84.20;;;;;;5126385;27;20454;-76
2022/11/24 06:35:00;;;;;;;19.67;3.45;;;9.40;84.20;;;;;;5126397;27;20444;-74
2022/11/24 06:37:28;;;;;;;14.97;4.13;;;9.40;84.20;;;;;;5126087;27;20202;-74
2022/11/24 06:39:56;;;;;;;19.37;3.97;;;9.40;84.20;;;;;;5122328;27;20556;-74
2022/11/24 06:42:24;;;;;;;28.57;4.33;;;9.40;84.20;;;;;;5127278;27;20455;-75
2022/11/24 06:44:54;;;;;;;19.80;4.20;;;9.40;84.20;;;;;;5124870;27;20505;-75
2022/11/24 06:47:22;;;;;;;17.00;3.57;;;9.40;84.20;;;;;;5126588;27;20487;-76
2022/11/24 06:49:50;;;;;;;14.93;3.50;;;9.40;84.20;;;;;;5126723;27;20474;-74
2022/11/24 06:52:18;;;;;;;16.33;3.67;;;9.40;84.30;;;;;;5121679;27;20463;-74
2022/11/24 06:54:46;;;;;;;23.03;4.40;;;9.40;84.30;;;;;;5125082;27;21049;-74
2022/11/24 06:57:14;;;;;;;20.10;4.03;;;9.40;84.30;;;;;;5127979;27;20508;-75
2022/11/24 06:59:42;;;;;;;18.30;4.43;;;9.40;84.30;;;;;;5128262;27;20562;-75
2022/11/24 07:02:11;;;;;;;16.13;4.10;;;9.40;84.30;;;;;;5127963;27;20455;-74
2022/11/24 07:04:39;;;;;;;29.33;4.17;;;9.50;84.30;;;;;;5128127;27;20451;-75
2022/11/24 07:07:07;;;;;;;27.80;4.33;;;9.50;84.20;;;;;;5120130;27;20484;-74
2022/11/24 07:09:35;;;;;;;17.07;3.87;;;9.50;84.20;;;;;;5124506;27;20448;-76
2022/11/24 07:12:04;;;;;;;14.17;3.50;;;9.50;84.20;;;;;;5125416;27;21307;-75
2022/11/24 07:14:32;;;;;;;17.97;4.40;;;9.50;84.20;;;;;;5124346;27;20451;-76
2022/11/24 07:17:03;;;;;;;14.30;3.30;;;9.50;84.20;;;;;;5127616;27;20947;-75
2022/11/24 07:19:32;;;;;;;16.40;4.37;;;9.60;84.30;;;;;;5126511;27;20474;-74
2022/11/24 07:22:00;;;;;;;13.90;3.90;;;9.60;84.30;;;;;;5142045;27;20456;-76
2022/11/24 07:24:28;;;;;;;15.47;4.23;;;9.60;84.30;;;;;;5128217;27;20455;-76
2022/11/24 07:26:56;;;;;;;14.60;3.10;;;9.60;84.20;;;;;;5128088;27;20447;-77
2022/11/24 07:29:24;;;;;;;22.73;4.70;;;9.60;84.20;;;;;;5123796;27;20515;-75
2022/11/24 07:31:52;;;;;;;13.88;3.03;;;9.60;84.20;;;;;;5127636;27;20490;-75
2022/11/24 07:34:21;;;;;;;14.83;3.50;;;9.60;84.10;;;;;;5123887;27;20289;-74
2022/11/24 07:36:50;;;;;;;21.23;4.20;;;9.60;84.20;;;;;;5116509;27;20464;-75
2022/11/24 07:39:18;;;;;;;20.73;4.63;;;9.60;84.20;;;;;;5127197;27;20530;-74
2022/11/24 07:41:46;;;;;;;21.73;4.30;;;9.60;84.20;;;;;;5127392;27;20486;-74
2022/11/24 07:44:14;;;;;;;18.77;4.27;;;9.60;84.20;;;;;;5126836;27;20459;-74
2022/11/24 07:46:42;;;;;;;24.73;4.90;;;9.60;84.20;;;;;;5127563;27;20454;-75
2022/11/24 07:49:10;;;;;;;12.03;3.70;;;9.60;84.30;;;;;;5126398;27;20459;-76
2022/11/24 07:51:38;;;;;;;19.88;3.80;;;9.60;84.40;;;;;;5123172;27;20487;-76
2022/11/24 07:54:07;;;;;;;21.90;4.10;;;9.60;84.40;;;;;;5120795;27;20206;-74
2022/11/24 07:56:35;;;;;;;22.97;4.90;;;9.70;84.40;;;;;;5123435;27;21037;-75
2022/11/24 07:59:03;;;;;;;15.33;4.40;;;9.70;84.40;;;;;;5122501;27;20448;-75
2022/11/24 08:01:31;;;;;;;23.03;4.53;;;9.70;84.40;;;;;;5126564;27;20485;-76
2022/11/24 08:04:01;;;;;;;17.03;4.67;;;9.70;84.40;;;;;;5124226;27;20897;-75
2022/11/24 08:06:29;;;;;;;14.40;4.53;;;9.70;84.40;;;;;;5124903;27;20777;-78
2022/11/24 08:09:07;;;;;;;19.03;4.60;;;9.70;84.40;;;;;;5121578;27;20483;-76
2022/11/24 08:11:35;;;;;;;17.33;4.23;;;9.70;84.40;;;;;;5118947;27;21015;-75
2022/11/24 08:14:03;;;;;;;16.80;3.97;;;9.70;84.40;;;;;;5124219;27;20496;-77
2022/11/24 08:16:31;;;;;;;16.87;4.13;;;9.80;84.40;;;;;;5120506;27;20455;-77
2022/11/24 08:19:00;;;;;;;21.33;5.40;;;9.70;84.30;;;;;;5121423;27;20546;-75
2022/11/24 08:21:28;;;;;;;35.00;4.43;;;9.70;84.40;;;;;;5120059;27;20475;-76
2022/11/24 08:23:56;;;;;;;24.47;5.17;;;9.70;84.40;;;;;;5122125;27;20452;-76
2022/11/24 08:26:26;;;;;;;12.63;4.00;;;9.70;84.50;;;;;;5125431;27;20451;-75
2022/11/24 08:28:56;;;;;;;19.43;4.70;;;9.80;84.50;;;;;;5124599;27;20498;-74
2022/11/24 08:31:26;;;;;;;23.10;4.57;;;9.80;84.50;;;;;;5120930;27;20797;-75
2022/11/24 08:33:55;;;;;;;23.07;5.23;;;9.80;84.50;;;;;;5120634;27;20469;-76
2022/11/24 08:36:23;;;;;;;23.43;4.70;;;9.80;84.50;;;;;;5122473;27;20454;-77
2022/11/24 08:38:55;;;;;;;17.27;4.82;;;9.80;84.50;;;;;;5118127;27;20527;-74
2022/11/24 08:41:26;;;;;;;24.13;4.63;;;9.80;84.50;;;;;;5117124;27;20206;-75
2022/11/24 08:43:54;;;;;;;15.07;4.27;;;9.80;84.70;;;;;;5120483;27;20621;-75
2022/11/24 08:46:22;;;;;;;15.43;4.47;;;9.80;84.60;;;;;;5123773;28;20460;-75
2022/11/24 08:48:53;;;;;;;16.03;4.50;;;9.80;84.70;;;;;;5118642;28;20490;-75
2022/11/24 08:51:22;;;;;;;16.43;4.50;;;9.80;84.70;;;;;;5119440;27;21026;-73
2022/11/24 08:53:54;;;;;;;16.87;4.00;;;9.80;84.80;;;;;;5123592;28;20987;-72
2022/11/24 08:56:22;;;;;;;22.60;4.50;;;9.80;84.80;;;;;;5122179;28;20459;-74
2022/11/24 08:58:52;;;;;;;12.73;4.07;;;9.80;84.90;;;;;;5120464;28;20508;-75
2022/11/24 09:01:21;;;;;;;10.50;3.20;;;9.80;84.90;;;;;;5119212;28;21177;-75
2022/11/24 09:03:50;;;;;;;14.93;3.60;;;9.80;84.90;;;;;;5123774;28;20474;-75
2022/11/24 09:06:21;;;;;;;12.03;3.37;;;9.80;85.00;;;;;;5122446;28;20447;-75
2022/11/24 09:08:50;;;;;;;9.37;3.30;;;9.90;85.10;;;;;;5125441;28;20454;-74
2022/11/24 09:11:18;;;;;;;16.70;3.10;;;9.90;85.00;;;;;;5127218;28;20547;-74
2022/11/24 09:13:46;;;;;;;10.30;3.27;;;9.90;85.10;;;;;;5124801;28;20482;-74
2022/11/24 09:16:18;;;;;;;10.70;2.53;;;9.90;85.10;;;;;;5124338;27;21332;-74
2022/11/24 09:18:47;;;;;;;13.60;3.13;;;9.90;85.10;;;;;;5122211;27;20494;-72
2022/11/24 09:21:17;;;;;;;16.47;2.53;;;9.90;85.20;;;;;;5126672;27;20475;-71
2022/11/24 09:23:47;;;;;;;18.80;3.53;;;10.00;85.40;;;;;;5126360;27;20455;-71
2022/11/24 09:26:17;;;;;;;7.47;2.03;;;10.10;85.40;;;;;;5128607;27;20512;-71
2022/11/24 09:28:45;;;;;;;13.43;2.07;;;10.10;85.50;;;;;;5125344;27;20543;-71
2022/11/24 09:31:17;;;;;;;6.73;2.53;;;10.10;85.40;;;;;;5126848;27;21318;-72
2022/11/24 09:33:45;;;;;;;10.17;2.93;;;10.20;85.40;;;;;;5121076;27;20587;-71
2022/11/24 09:36:14;;;;;;;5.70;1.97;;;10.20;85.40;;;;;;5121949;27;20463;-71
2022/11/24 09:38:42;;;;;;;9.10;2.10;;;10.20;85.40;;;;;;5124598;27;21132;-72
2022/11/24 09:41:40;;;;;;;7.40;2.17;;;10.20;85.20;;;;;;5125831;27;20479;-72
2022/11/24 09:44:20;;;;;;;8.40;2.10;;;10.20;85.20;;;;;;5126071;27;20471;-72
2022/11/24 09:46:59;;;;;;;13.90;2.60;;;10.20;85.20;;;;;;5125708;27;21204;-72
2022/11/24 09:49:34;;;;;;;14.10;2.60;;;10.20;85.20;;;;;;5139796;27;20467;-72
2022/11/24 09:52:09;;;;;;;16.90;2.43;;;10.20;85.20;;;;;;5127047;27;20455;-72
2022/11/24 09:54:44;;;;;;;7.57;2.17;;;10.20;85.40;;;;;;5124359;27;20477;-71
2022/11/24 09:57:14;;;;;;;13.80;2.70;;;10.20;85.40;;;;;;5123129;27;20467;-71
2022/11/24 09:59:43;;;;;;;11.07;2.93;;;10.30;85.20;;;;;;5122563;27;20467;-72
2022/11/24 10:02:12;;;;;;;7.67;2.07;;;10.20;85.10;;;;;;5124283;27;21279;-72
2022/11/24 10:04:43;;;;;;;8.30;1.73;;;10.30;85.20;;;;;;5118902;27;20455;-72
2022/11/24 10:07:20;;;;;;;10.73;2.13;;;10.30;85.10;;;;;;5128850;27;20447;-72
2022/11/24 10:10:03;;;;;;;7.40;2.27;;;10.20;85.20;;;;;;5123944;27;20842;-74
2022/11/24 10:12:42;;;;;;;7.43;2.03;;;10.20;85.40;;;;;;5122288;27;20532;-73
2022/11/24 10:15:37;;;;;;;13.10;2.63;;;10.20;85.40;;;;;;5128016;27;20447;-71
2022/11/24 10:18:31;;;;;;;9.23;2.57;;;10.20;85.40;;;;;;5120021;27;20470;-73
2022/11/24 10:21:12;;;;;;;7.70;1.97;;;10.20;85.60;;;;;;5120091;27;20491;-71
2022/11/24 10:23:54;;;;;;;9.63;2.00;;;10.20;85.60;;;;;;5127392;27;20459;-72
2022/11/24 10:26:31;;;;;;;9.43;2.43;;;10.30;85.60;;;;;;5123709;27;20459;-71
2022/11/24 10:29:07;;;;;;;10.03;2.17;;;10.30;85.50;;;;;;5123484;27;20467;-72
2022/11/24 10:31:37;;;;;;;10.60;3.13;;;10.30;85.40;;;;;;5123558;27;20479;-71
2022/11/24 10:34:25;;;;;;;8.93;2.20;;;10.30;85.40;;;;;;5122561;27;21056;-73
2022/11/24 10:36:58;;;;;;;7.30;2.60;;;10.30;85.40;;;;;;5125674;27;21080;-72
2022/11/24 10:39:32;;;;;;;10.37;1.93;;;10.30;85.50;;;;;;5126495;27;20511;-73
2022/11/24 10:42:05;;;;;;;9.40;2.23;;;10.40;85.40;;;;;;5128445;27;20500;-72
2022/11/24 10:44:33;;;;;;;9.10;1.93;;;10.40;85.30;;;;;;5125387;27;20470;-73
2022/11/24 10:47:01;;;;;;;12.73;3.20;;;10.40;85.40;;;;;;5124797;27;20551;-72
2022/11/24 10:49:32;;;;;;;11.27;2.73;;;10.40;85.30;;;;;;5124817;27;20475;-72
2022/11/24 10:52:07;;;;;;;7.17;2.50;;;10.40;85.20;;;;;;5126577;27;20509;-72
2022/11/24 10:54:35;;;;;;;13.37;3.23;;;10.50;85.10;;;;;;5126185;27;20974;-72
2022/11/24 10:57:04;;;;;;;10.47;1.90;;;10.50;85.00;;;;;;5122546;27;20776;-72
2022/11/24 10:59:37;;;;;;;11.33;2.27;;;10.50;85.10;;;;;;5125796;27;20459;-72
2022/11/24 11:02:31;;;;;;;13.63;2.50;;;10.50;85.20;;;;;;5122959;27;20455;-72
2022/11/24 11:05:26;;;;;;;9.43;3.13;;;10.60;85.20;;;;;;5124289;27;20509;-72
2022/11/24 11:08:20;;;;;;;7.93;2.17;;;10.60;85.10;;;;;;5124388;27;20524;-72
2022/11/24 11:10:50;;;;;;;9.80;2.50;;;10.70;84.80;;;;;;5118935;27;20487;-70
2022/11/24 11:13:23;;;;;;;9.13;2.07;;;10.70;84.90;;;;;;5126885;27;20479;-73
2022/11/24 11:15:51;;;;;;;12.13;2.43;;;10.60;84.80;;;;;;5122981;27;20487;-73
2022/11/24 11:18:20;;;;;;;10.37;2.60;;;10.70;84.60;;;;;;5123419;27;20968;-71
2022/11/24 11:20:52;;;;;;;10.90;2.50;;;10.70;84.60;;;;;;5123188;27;20483;-71
2022/11/24 11:23:27;;;;;;;13.50;2.50;;;10.70;84.50;;;;;;5126011;27;21275;-72
2022/11/24 11:26:19;;;;;;;11.73;3.60;;;10.70;84.20;;;;;;5123791;27;20496;-72
2022/11/24 11:28:59;;;;;;;12.70;2.70;;;10.80;84.10;;;;;;5123455;27;20455;-72
2022/11/24 11:31:59;;;;;;;10.60;2.30;;;10.80;84.10;;;;;;5123707;27;20479;-72
2022/11/24 11:34:48;;;;;;;12.97;3.27;;;10.80;84.10;;;;;;5124742;27;20498;-71
2022/11/24 11:37:19;;;;;;;10.73;2.53;;;10.80;84.00;;;;;;5121225;27;20463;-72
2022/11/24 11:39:49;;;;;;;9.13;2.10;;;10.80;83.90;;;;;;5121602;27;20485;-71
2022/11/24 11:42:25;;;;;;;11.73;2.43;;;10.80;83.80;;;;;;5126313;27;20459;-71
2022/11/24 11:45:16;;;;;;;12.83;2.43;;;10.90;83.70;;;;;;5125699;27;20550;-71
2022/11/24 11:47:48;;;;;;;11.83;2.63;;;10.90;83.60;;;;;;5127727;27;20461;-71
2022/11/24 11:50:24;;;;;;;7.43;2.30;;;10.90;83.40;;;;;;5121810;27;20532;-71
2022/11/24 11:53:05;;;;;;;15.03;3.00;;;10.90;83.10;;;;;;5120717;27;20526;-71
2022/11/24 11:56:02;;;;;;;9.37;2.77;;;10.90;83.20;;;;;;5122526;27;20490;-71
2022/11/24 11:59:05;;;;;;;7.70;2.10;;;10.90;83.00;;;;;;5123231;27;21009;-70
2022/11/24 12:01:46;;;;;;;12.37;2.43;;;10.90;83.00;;;;;;5124527;27;20475;-71
2022/11/24 12:04:27;;;;;;;8.20;2.50;;;10.90;82.80;;;;;;5122141;27;20455;-71
2022/11/24 12:07:07;;;;;;;9.63;2.40;;;10.90;82.80;;;;;;5122663;27;21026;-72
2022/11/24 12:09:57;;;;;;;11.77;1.90;;;10.90;82.70;;;;;;5139718;27;20467;-72
2022/11/24 12:12:49;;;;;;;15.10;4.00;;;10.80;82.60;;;;;;5116336;27;20466;-72
2022/11/24 12:15:25;;;;;;;16.43;2.13;;;10.90;82.50;;;;;;5134111;27;21183;-73
2022/11/24 12:17:57;;;;;;;14.93;2.63;;;10.90;82.40;;;;;;5138267;27;20512;-72
2022/11/24 12:20:37;;;;;;;10.13;2.30;;;10.90;82.10;;;;;;5125273;27;20544;-72
2022/11/24 12:23:16;;;;;;;8.90;2.00;;;10.90;82.00;;;;;;5123734;27;20527;-73
2022/11/24 12:25:50;;;;;;;11.87;2.13;;;10.90;81.80;;;;;;5123902;27;21276;-73
2022/11/24 12:28:32;;;;;;;9.93;2.30;;;10.90;81.80;;;;;;5121170;27;20463;-74
2022/11/24 12:31:06;;;;;;;8.73;2.00;;;10.90;81.70;;;;;;5112873;27;21031;-72
2022/11/24 12:33:58;;;;;;;10.87;2.33;;;10.90;81.80;;;;;;5116508;27;20486;-71
2022/11/24 12:36:41;;;;;;;13.93;2.30;;;10.90;81.80;;;;;;5123513;27;20509;-72
2022/11/24 12:39:24;;;;;;;9.73;2.40;;;10.90;81.70;;;;;;5124786;27;20439;-71
2022/11/24 12:42:05;;;;;;;16.40;2.43;;;10.90;81.70;;;;;;5125923;27;20462;-72
2022/11/24 12:44:59;;;;;;;7.10;1.77;;;10.90;81.70;;;;;;5125416;28;20485;-72
2022/11/24 12:47:37;;;;;;;10.60;2.60;;;10.90;81.40;;;;;;5140673;27;20488;-72
2022/11/24 12:50:09;;;;;;;9.60;2.40;;;10.90;81.40;;;;;;5125299;27;20491;-75
2022/11/24 12:52:40;;;;;;;9.93;2.00;;;11.00;81.40;;;;;;5124291;27;20459;-71
2022/11/24 12:55:16;;;;;;;9.37;2.10;;;11.00;81.30;;;;;;5126573;27;20794;-71
2022/11/24 12:57:54;;;;;;;10.07;3.00;;;10.90;81.30;;;;;;5127612;27;20446;-72
2022/11/24 13:00:24;;;;;;;14.87;2.90;;;10.90;81.30;;;;;;5123620;27;20478;-72
2022/11/24 13:03:16;;;;;;;14.13;2.47;;;10.90;81.20;;;;;;5127979;27;20992;-72
2022/11/24 13:05:52;;;;;;;9.73;2.73;;;10.90;81.20;;;;;;5126163;27;20466;-72
2022/11/24 13:08:21;;;;;;;7.73;2.23;;;10.90;81.20;;;;;;5125209;27;20459;-72
2022/11/24 13:10:49;;;;;;;12.33;2.23;;;10.80;81.00;;;;;;5129314;27;20474;-72